Time;durP1;ratioP1;P1;durP2;ratioP2;P2;SDS_P1;SDS_P2;PMS_P1;PMS_P2;Temp;Humidity;BMP_temperature;BMP_pressure;BME280_temperature;BME280_humidity;BME280_pressure;Samples;Min_cycle;Max_cycle;Signal;HPM_P1;HPM_P2
2021/10/20 00:01:35;;;;;;;0.00;0.00;;;6.60;52.30;;;;;;5071520;28;20458;-76
2021/10/20 00:04:02;;;;;;;0.00;0.00;;;6.50;52.40;;;;;;5056208;28;20485;-77
2021/10/20 00:06:28;;;;;;;0.00;0.00;;;6.50;52.60;;;;;;5056244;28;20071;-77
2021/10/20 00:08:54;;;;;;;0.00;0.00;;;6.40;52.70;;;;;;5055809;28;20025;-77
2021/10/20 00:11:20;;;;;;;0.00;0.00;;;6.40;52.80;;;;;;5039635;28;20034;-77
2021/10/20 00:13:46;;;;;;;0.00;0.00;;;6.40;53.00;;;;;;5036103;28;20044;-77
2021/10/20 00:16:12;;;;;;;0.00;0.00;;;6.30;53.10;;;;;;5050943;28;20032;-77
2021/10/20 00:18:39;;;;;;;0.00;0.00;;;6.30;53.20;;;;;;5035789;28;20033;-77
2021/10/20 00:21:07;;;;;;;0.00;0.00;;;6.30;53.20;;;;;;5035731;28;20075;-77
2021/10/20 00:23:33;;;;;;;0.00;0.00;;;6.30;53.10;;;;;;5035940;28;20038;-77
2021/10/20 00:25:58;;;;;;;0.00;0.00;;;6.20;53.10;;;;;;5035583;28;20041;-77
2021/10/20 00:28:24;;;;;;;0.00;0.00;;;6.20;53.20;;;;;;5035923;28;20029;-78
2021/10/20 00:30:50;;;;;;;0.00;0.00;;;6.10;53.20;;;;;;5034443;28;20022;-77
2021/10/20 00:33:15;;;;;;;0.00;0.00;;;6.00;53.30;;;;;;5035980;28;20041;-77
2021/10/20 00:35:41;;;;;;;0.00;0.00;;;6.00;53.30;;;;;;5035105;28;20033;-76
2021/10/20 00:38:07;;;;;;;0.00;0.00;;;6.00;53.40;;;;;;5035319;28;20045;-77
2021/10/20 00:40:32;;;;;;;0.00;0.00;;;5.90;53.50;;;;;;5035764;28;20409;-77
2021/10/20 00:42:58;;;;;;;0.00;0.00;;;5.90;53.60;;;;;;5035526;28;20065;-77
2021/10/20 00:45:24;;;;;;;0.00;0.00;;;5.90;53.70;;;;;;5034378;28;20029;-77
2021/10/20 00:47:50;;;;;;;0.00;0.00;;;5.90;53.80;;;;;;5050781;28;20028;-77
2021/10/20 00:50:16;;;;;;;0.00;0.00;;;5.80;53.80;;;;;;5035123;28;20087;-76
2021/10/20 00:52:42;;;;;;;0.00;0.00;;;5.80;54.00;;;;;;5034950;28;20041;-77
2021/10/20 00:55:09;;;;;;;0.00;0.00;;;5.80;54.00;;;;;;5034970;28;20462;-76
2021/10/20 00:57:37;;;;;;;0.00;0.00;;;5.80;54.70;;;;;;5033740;28;20025;-76
2021/10/20 01:00:07;;;;;;;0.00;0.00;;;5.90;54.10;;;;;;5035392;28;20378;-77
2021/10/20 01:02:33;;;;;;;0.00;0.00;;;5.90;54.10;;;;;;5034698;28;20088;-77
2021/10/20 01:04:59;;;;;;;0.00;0.00;;;5.90;54.10;;;;;;5050122;28;20084;-77
2021/10/20 01:07:25;;;;;;;0.00;0.00;;;5.90;54.20;;;;;;5035033;28;20025;-77
2021/10/20 01:09:51;;;;;;;0.00;0.00;;;5.90;54.30;;;;;;5033658;28;20381;-77
2021/10/20 01:12:17;;;;;;;0.00;0.00;;;5.90;54.40;;;;;;5038850;28;20041;-77
2021/10/20 01:14:44;;;;;;;0.00;0.00;;;5.80;54.50;;;;;;5054424;28;20029;-77
2021/10/20 01:17:10;;;;;;;0.00;0.00;;;5.80;54.60;;;;;;5054706;28;20393;-77
2021/10/20 01:19:36;;;;;;;0.00;0.00;;;5.70;54.70;;;;;;5054341;28;20033;-77
2021/10/20 01:22:03;;;;;;;0.00;0.00;;;5.60;54.70;;;;;;5053084;28;20111;-77
2021/10/20 01:24:29;;;;;;;0.00;0.00;;;5.50;54.70;;;;;;5054405;28;20160;-76
2021/10/20 01:26:56;;;;;;;0.00;0.00;;;5.40;55.00;;;;;;5052872;28;20492;-76
2021/10/20 01:29:23;;;;;;;0.00;0.00;;;5.20;55.30;;;;;;5054259;28;20064;-77
2021/10/20 01:31:51;;;;;;;0.00;0.00;;;5.00;55.60;;;;;;5033787;28;20101;-76
2021/10/20 01:34:16;;;;;;;0.00;0.00;;;4.80;55.90;;;;;;5034626;28;20079;-77
2021/10/20 01:36:43;;;;;;;0.00;0.00;;;4.70;56.10;;;;;;5038142;28;20445;-77
2021/10/20 01:39:10;;;;;;;0.00;0.00;;;4.70;56.40;;;;;;5041995;28;20045;-77
2021/10/20 01:41:37;;;;;;;0.00;0.00;;;4.60;57.20;;;;;;5043382;28;20458;-77
2021/10/20 01:44:04;;;;;;;0.00;0.00;;;4.50;56.80;;;;;;5043662;28;20029;-77
2021/10/20 01:46:30;;;;;;;0.00;0.00;;;4.40;56.90;;;;;;5040386;28;20033;-77
2021/10/20 01:48:56;;;;;;;0.00;0.00;;;4.30;57.00;;;;;;5043613;28;20440;-78
2021/10/20 01:51:22;;;;;;;0.00;0.00;;;4.30;57.20;;;;;;5043189;28;20032;-77
2021/10/20 01:53:49;;;;;;;0.00;0.00;;;4.30;57.30;;;;;;5040818;28;20033;-77
2021/10/20 01:56:15;;;;;;;0.00;0.00;;;4.30;57.40;;;;;;5043869;28;20024;-77
2021/10/20 01:58:42;;;;;;;0.00;0.00;;;4.20;57.40;;;;;;5042789;28;20075;-77
2021/10/20 02:01:08;;;;;;;0.65;0.03;;;4.20;57.60;;;;;;5041734;28;20061;-78
2021/10/20 02:03:35;;;;;;;0.00;0.00;;;4.20;57.70;;;;;;5058912;28;20040;-77
2021/10/20 02:06:11;;;;;;;0.00;0.00;;;4.10;57.80;;;;;;5042997;28;20018;-77
2021/10/20 02:08:38;;;;;;;0.00;0.00;;;4.10;57.80;;;;;;5039538;28;20021;-78
2021/10/20 02:11:04;;;;;;;0.00;0.00;;;4.10;57.80;;;;;;5042292;28;20021;-77
2021/10/20 02:13:30;;;;;;;0.00;0.00;;;4.10;57.90;;;;;;5044036;28;20420;-77
2021/10/20 02:15:56;;;;;;;0.00;0.00;;;4.10;58.00;;;;;;5046927;28;20037;-77
2021/10/20 02:18:21;;;;;;;0.00;0.00;;;4.10;58.00;;;;;;5044635;28;20029;-77
2021/10/20 02:20:50;;;;;;;0.00;0.00;;;4.10;58.00;;;;;;5041357;28;20021;-77
2021/10/20 02:23:16;;;;;;;0.00;0.00;;;4.10;58.10;;;;;;5042785;28;20127;-76
2021/10/20 02:25:41;;;;;;;0.00;0.00;;;4.00;58.10;;;;;;5048246;28;20053;-78
2021/10/20 02:28:07;;;;;;;0.00;0.00;;;4.00;58.20;;;;;;5043019;28;20026;-77
2021/10/20 02:30:33;;;;;;;0.00;0.00;;;4.10;58.20;;;;;;5040320;28;20022;-76
2021/10/20 02:32:58;;;;;;;0.00;0.00;;;4.10;58.10;;;;;;5041541;28;20029;-76
2021/10/20 02:35:24;;;;;;;0.00;0.00;;;4.10;58.10;;;;;;5040539;28;20028;-76
2021/10/20 02:37:50;;;;;;;0.00;0.00;;;4.10;58.00;;;;;;5056467;28;20017;-77
2021/10/20 02:40:16;;;;;;;0.00;0.00;;;4.20;57.90;;;;;;5046658;28;20480;-76
2021/10/20 02:42:42;;;;;;;0.00;0.00;;;4.20;57.90;;;;;;5046108;28;20029;-76
2021/10/20 02:45:12;;;;;;;0.00;0.00;;;4.20;57.90;;;;;;5046184;28;20190;-77
2021/10/20 02:47:38;;;;;;;0.00;0.00;;;4.20;57.90;;;;;;5044760;28;20087;-77
2021/10/20 02:50:05;;;;;;;0.00;0.00;;;4.20;57.90;;;;;;5044689;28;20021;-76
2021/10/20 02:52:31;;;;;;;0.00;0.00;;;4.30;58.00;;;;;;5047137;28;20075;-76
2021/10/20 02:54:56;;;;;;;0.10;0.10;;;4.30;58.10;;;;;;5045950;28;20029;-77
2021/10/20 02:57:22;;;;;;;0.00;0.00;;;4.30;58.10;;;;;;5045821;28;20021;-76
2021/10/20 02:59:48;;;;;;;0.00;0.00;;;4.30;58.00;;;;;;5045697;28;20176;-77
2021/10/20 03:02:14;;;;;;;0.00;0.00;;;4.30;58.70;;;;;;5045928;28;20036;-76
2021/10/20 03:04:40;;;;;;;0.00;0.00;;;4.30;58.10;;;;;;5051054;28;20025;-76
2021/10/20 03:07:06;;;;;;;0.00;0.00;;;4.30;58.10;;;;;;5037395;28;20029;-77
2021/10/20 03:09:31;;;;;;;0.00;0.00;;;4.30;58.10;;;;;;5036716;28;20021;-78
2021/10/20 03:11:57;;;;;;;0.00;0.00;;;4.40;58.20;;;;;;5037016;28;20464;-75
2021/10/20 03:14:23;;;;;;;0.00;0.00;;;4.30;58.10;;;;;;5036900;28;20029;-76
2021/10/20 03:16:49;;;;;;;0.00;0.00;;;4.40;58.10;;;;;;5037473;28;20076;-77
2021/10/20 03:19:14;;;;;;;0.00;0.00;;;4.40;58.10;;;;;;5036728;28;20504;-76
2021/10/20 03:21:42;;;;;;;0.00;0.00;;;4.40;58.20;;;;;;5036751;28;20429;-77
2021/10/20 03:24:08;;;;;;;0.00;0.00;;;4.30;58.20;;;;;;5035557;28;20053;-78
2021/10/20 03:26:34;;;;;;;0.00;0.00;;;4.30;58.30;;;;;;5035591;28;20478;-78
2021/10/20 03:28:59;;;;;;;0.00;0.00;;;4.20;58.30;;;;;;5049421;28;20029;-78
2021/10/20 03:31:25;;;;;;;0.00;0.00;;;4.20;58.50;;;;;;5056345;28;20029;-80
2021/10/20 03:33:51;;;;;;;0.00;0.00;;;4.20;58.60;;;;;;5056350;28;20078;-78
2021/10/20 03:36:17;;;;;;;0.00;0.00;;;4.10;58.70;;;;;;5056107;28;20021;-77
2021/10/20 03:38:42;;;;;;;0.00;0.00;;;4.10;58.80;;;;;;5056841;28;20063;-77
2021/10/20 03:41:08;;;;;;;0.00;0.00;;;4.10;58.90;;;;;;5057072;28;20029;-76
2021/10/20 03:43:34;;;;;;;0.00;0.00;;;4.10;58.90;;;;;;5071955;28;20025;-78
2021/10/20 03:46:00;;;;;;;0.00;0.00;;;4.10;59.00;;;;;;5072358;28;20052;-76
2021/10/20 03:48:25;;;;;;;0.05;0.05;;;4.10;59.10;;;;;;5056526;28;20389;-78
2021/10/20 03:50:51;;;;;;;0.00;0.00;;;4.10;59.10;;;;;;5055685;28;20096;-77
2021/10/20 03:53:17;;;;;;;0.00;0.00;;;4.10;59.10;;;;;;5056059;28;20033;-76
2021/10/20 03:55:43;;;;;;;0.00;0.00;;;4.20;59.20;;;;;;5055835;28;20393;-78
2021/10/20 03:58:08;;;;;;;0.00;0.00;;;4.20;59.10;;;;;;5056288;28;20032;-78
2021/10/20 04:00:34;;;;;;;0.00;0.00;;;4.20;59.10;;;;;;5055669;28;20465;-78
2021/10/20 04:03:00;;;;;;;0.00;0.00;;;4.30;59.10;;;;;;5055637;28;20029;-78
2021/10/20 04:05:26;;;;;;;0.00;0.00;;;4.30;58.90;;;;;;5055888;28;20029;-77
2021/10/20 04:07:52;;;;;;;0.00;0.00;;;4.40;58.90;;;;;;5056024;28;20017;-77
2021/10/20 04:10:23;;;;;;;0.00;0.00;;;4.40;59.00;;;;;;5055951;28;20025;-78
2021/10/20 04:12:50;;;;;;;0.00;0.00;;;4.30;59.10;;;;;;5055898;28;20025;-77
2021/10/20 04:15:17;;;;;;;0.00;0.00;;;4.20;59.10;;;;;;5071551;28;20074;-77
2021/10/20 04:17:43;;;;;;;0.00;0.00;;;4.30;59.30;;;;;;5071176;28;20025;-77
2021/10/20 04:20:11;;;;;;;0.00;0.00;;;4.30;59.30;;;;;;5055732;28;20171;-76
2021/10/20 04:22:38;;;;;;;0.00;0.00;;;4.30;59.20;;;;;;5071014;28;20465;-77
2021/10/20 04:25:05;;;;;;;0.00;0.00;;;4.30;59.20;;;;;;5055586;28;20063;-77
2021/10/20 04:27:31;;;;;;;0.00;0.00;;;4.40;59.20;;;;;;5055230;28;20079;-77
2021/10/20 04:29:59;;;;;;;0.00;0.00;;;4.40;59.00;;;;;;5055778;28;20029;-77
2021/10/20 04:32:27;;;;;;;0.00;0.00;;;4.40;59.00;;;;;;5055829;28;20028;-77
2021/10/20 04:34:53;;;;;;;0.00;0.00;;;4.40;59.10;;;;;;5055465;28;20029;-77
2021/10/20 04:37:25;;;;;;;0.00;0.00;;;4.40;59.20;;;;;;5055084;28;20025;-76
2021/10/20 04:39:59;;;;;;;0.00;0.00;;;4.40;59.20;;;;;;5070717;28;20175;-77
2021/10/20 04:42:26;;;;;;;0.00;0.00;;;4.40;59.20;;;;;;5054047;28;20036;-77
2021/10/20 04:44:52;;;;;;;0.00;0.00;;;4.40;59.10;;;;;;5054045;28;20029;-78
2021/10/20 04:47:18;;;;;;;0.00;0.00;;;4.40;59.10;;;;;;5055270;28;20347;-78
2021/10/20 04:49:44;;;;;;;0.00;0.00;;;4.50;59.10;;;;;;5055436;28;20025;-78
2021/10/20 04:52:10;;;;;;;0.00;0.00;;;4.50;59.10;;;;;;5071030;28;20112;-77
2021/10/20 04:54:37;;;;;;;0.00;0.00;;;4.50;59.10;;;;;;5054849;28;20380;-78
2021/10/20 04:57:03;;;;;;;0.00;0.00;;;4.50;59.10;;;;;;5055183;28;20029;-78
2021/10/20 04:59:31;;;;;;;0.00;0.00;;;4.60;59.10;;;;;;5054480;28;20116;-79
2021/10/20 05:02:01;;;;;;;0.10;0.00;;;4.70;59.10;;;;;;5054100;28;20491;-76
2021/10/20 05:04:27;;;;;;;0.10;0.00;;;4.80;59.20;;;;;;5054423;28;20444;-77
2021/10/20 05:06:53;;;;;;;0.00;0.00;;;4.90;59.20;;;;;;5054535;28;20047;-76
2021/10/20 05:09:18;;;;;;;0.00;0.00;;;5.00;59.00;;;;;;5049410;28;20517;-77
2021/10/20 05:11:44;;;;;;;0.00;0.00;;;5.20;58.80;;;;;;5047319;28;20477;-79
2021/10/20 05:14:10;;;;;;;0.00;0.00;;;5.40;58.60;;;;;;5043307;28;20540;-77
2021/10/20 05:16:36;;;;;;;0.10;0.00;;;5.60;58.40;;;;;;5046578;28;20025;-78
2021/10/20 05:19:02;;;;;;;0.00;0.00;;;5.80;58.20;;;;;;5059050;28;20024;-78
2021/10/20 05:21:28;;;;;;;0.00;0.00;;;6.00;57.90;;;;;;5045173;28;20373;-77
2021/10/20 05:23:54;;;;;;;0.00;0.00;;;6.10;57.60;;;;;;5039426;28;20048;-78
2021/10/20 05:26:20;;;;;;;0.00;0.00;;;6.30;57.30;;;;;;5046392;28;20025;-77
2021/10/20 05:28:46;;;;;;;0.00;0.00;;;6.40;57.10;;;;;;5054275;28;20469;-77
2021/10/20 05:31:12;;;;;;;0.00;0.00;;;6.50;56.90;;;;;;5069974;28;20032;-78
2021/10/20 05:33:38;;;;;;;0.00;0.00;;;6.70;56.60;;;;;;5054256;28;20025;-80
2021/10/20 05:36:05;;;;;;;0.00;0.00;;;6.70;56.30;;;;;;5053968;28;20017;-77
2021/10/20 05:38:31;;;;;;;0.00;0.00;;;6.70;56.20;;;;;;5054147;28;20052;-77
2021/10/20 05:40:57;;;;;;;0.00;0.00;;;6.80;56.20;;;;;;5053113;28;20021;-77
2021/10/20 05:43:23;;;;;;;0.03;0.03;;;6.80;56.20;;;;;;5053946;28;20074;-78
2021/10/20 05:45:49;;;;;;;0.00;0.00;;;6.90;56.30;;;;;;5054082;28;20032;-78
2021/10/20 05:48:15;;;;;;;0.00;0.00;;;6.90;56.80;;;;;;5054179;28;20051;-77
2021/10/20 05:50:44;;;;;;;0.00;0.00;;;7.00;56.20;;;;;;5054086;28;20100;-78
2021/10/20 05:53:10;;;;;;;0.00;0.00;;;7.20;56.30;;;;;;5054154;28;20056;-77
2021/10/20 05:55:37;;;;;;;0.00;0.00;;;7.40;56.10;;;;;;5053729;28;20075;-78
2021/10/20 05:58:04;;;;;;;0.43;0.05;;;7.60;55.80;;;;;;5052803;28;20075;-77
2021/10/20 06:00:30;;;;;;;0.00;0.00;;;7.80;55.40;;;;;;5053818;28;20472;-77
2021/10/20 06:02:56;;;;;;;0.08;0.08;;;8.00;55.10;;;;;;5052416;28;20037;-77
2021/10/20 06:05:22;;;;;;;0.00;0.00;;;8.20;54.80;;;;;;5054003;28;20025;-77
2021/10/20 06:07:48;;;;;;;0.00;0.00;;;8.30;54.50;;;;;;5053940;28;20025;-77
2021/10/20 06:10:15;;;;;;;0.00;0.00;;;8.40;54.30;;;;;;5054124;28;20025;-77
2021/10/20 06:12:41;;;;;;;0.00;0.00;;;8.50;54.20;;;;;;5053805;28;20025;-78
2021/10/20 06:15:07;;;;;;;0.00;0.00;;;8.50;54.10;;;;;;5053204;28;20108;-78
2021/10/20 06:17:34;;;;;;;0.10;0.10;;;8.50;54.00;;;;;;5069132;28;20025;-76
2021/10/20 06:20:00;;;;;;;0.00;0.00;;;8.50;53.90;;;;;;5054121;28;20104;-77
2021/10/20 06:22:26;;;;;;;0.00;0.00;;;8.60;53.90;;;;;;5053138;28;20052;-77
2021/10/20 06:24:55;;;;;;;0.00;0.00;;;8.60;53.80;;;;;;5068345;28;20060;-77
2021/10/20 06:27:21;;;;;;;0.15;0.15;;;8.50;53.70;;;;;;5053576;28;20163;-78
2021/10/20 06:29:47;;;;;;;0.15;0.00;;;8.50;53.70;;;;;;5034735;28;20025;-77
2021/10/20 06:32:13;;;;;;;0.00;0.00;;;8.50;53.60;;;;;;5035764;28;20032;-77
2021/10/20 06:34:39;;;;;;;0.00;0.00;;;8.50;53.60;;;;;;5052986;28;20032;-78
2021/10/20 06:37:04;;;;;;;0.10;0.10;;;8.50;53.50;;;;;;5053322;28;20025;-78
2021/10/20 06:39:30;;;;;;;0.20;0.10;;;8.60;53.40;;;;;;5053358;28;20026;-78
2021/10/20 06:41:56;;;;;;;0.00;0.00;;;8.60;53.30;;;;;;5053237;28;20040;-77
2021/10/20 06:44:22;;;;;;;0.00;0.00;;;8.70;53.30;;;;;;5053364;28;20040;-77
2021/10/20 06:46:48;;;;;;;0.00;0.00;;;8.70;53.30;;;;;;5051891;28;20036;-77
2021/10/20 06:49:14;;;;;;;0.10;0.10;;;8.80;53.40;;;;;;5053216;28;20374;-78
2021/10/20 06:51:40;;;;;;;0.00;0.00;;;8.90;53.40;;;;;;5052132;28;20454;-77
2021/10/20 06:54:06;;;;;;;0.00;0.00;;;9.10;53.50;;;;;;5051944;28;20037;-76
2021/10/20 06:56:32;;;;;;;0.00;0.00;;;9.40;53.40;;;;;;5053233;28;20163;-77
2021/10/20 06:58:58;;;;;;;0.00;0.00;;;9.70;53.10;;;;;;5052015;28;20025;-77
2021/10/20 07:01:24;;;;;;;0.00;0.00;;;10.00;52.80;;;;;;5051998;28;20036;-77
2021/10/20 07:03:50;;;;;;;0.00;0.00;;;10.20;52.40;;;;;;5052775;28;20515;-78
2021/10/20 07:06:15;;;;;;;0.00;0.00;;;10.30;51.90;;;;;;5068857;28;20041;-78
2021/10/20 07:08:41;;;;;;;0.00;0.00;;;10.30;51.80;;;;;;5052122;28;20111;-77
2021/10/20 07:11:07;;;;;;;0.00;0.00;;;10.40;51.90;;;;;;5053308;28;20033;-78
2021/10/20 07:13:33;;;;;;;0.00;0.00;;;10.50;51.80;;;;;;5052990;28;20029;-79
2021/10/20 07:15:58;;;;;;;0.10;0.10;;;10.70;51.70;;;;;;5052688;28;20036;-77
2021/10/20 07:18:27;;;;;;;0.00;0.00;;;10.90;51.40;;;;;;5052755;28;20029;-77
2021/10/20 07:20:54;;;;;;;0.00;0.00;;;11.10;51.10;;;;;;5068734;28;20060;-78
2021/10/20 07:23:19;;;;;;;0.00;0.00;;;11.20;50.80;;;;;;5053388;28;20072;-78
2021/10/20 07:25:45;;;;;;;0.10;0.10;;;11.30;50.50;;;;;;5051072;28;20486;-79
2021/10/20 07:28:11;;;;;;;0.00;0.00;;;11.50;50.30;;;;;;5046103;28;20028;-78
2021/10/20 07:30:37;;;;;;;0.08;0.08;;;11.70;49.80;;;;;;5039538;28;20026;-78
2021/10/20 07:33:04;;;;;;;0.03;0.03;;;11.80;49.40;;;;;;5036829;28;20163;-77
2021/10/20 07:35:30;;;;;;;0.00;0.00;;;11.90;49.10;;;;;;5036846;28;20036;-76
2021/10/20 07:37:56;;;;;;;0.00;0.00;;;12.00;48.90;;;;;;5036636;28;20033;-78
2021/10/20 07:40:22;;;;;;;0.00;0.00;;;12.20;48.70;;;;;;5038974;28;20034;-77
2021/10/20 07:42:47;;;;;;;0.00;0.00;;;12.40;48.50;;;;;;5036533;28;20026;-78
2021/10/20 07:45:25;;;;;;;0.00;0.00;;;12.70;48.30;;;;;;5036326;28;20382;-78
2021/10/20 07:47:55;;;;;;;0.00;0.00;;;13.10;47.60;;;;;;5036670;28;20030;-78
2021/10/20 07:50:22;;;;;;;0.00;0.00;;;13.60;47.10;;;;;;5036904;28;20429;-77
2021/10/20 07:52:50;;;;;;;0.00;0.00;;;14.00;46.50;;;;;;5051715;28;20030;-78
2021/10/20 07:55:18;;;;;;;0.00;0.00;;;14.50;45.90;;;;;;5036332;28;20056;-78
2021/10/20 07:57:44;;;;;;;0.00;0.00;;;15.00;45.10;;;;;;5036370;28;20112;-79
2021/10/20 08:00:11;;;;;;;0.00;0.00;;;15.60;44.80;;;;;;5036089;28;20025;-78
2021/10/20 08:02:36;;;;;;;0.00;0.00;;;16.50;43.70;;;;;;5036359;28;20029;-79
2021/10/20 08:05:03;;;;;;;0.00;0.00;;;17.10;42.00;;;;;;5036365;28;20033;-77
2021/10/20 08:07:28;;;;;;;0.00;0.00;;;17.80;41.40;;;;;;5036385;28;20036;-78
2021/10/20 08:09:54;;;;;;;0.00;0.00;;;18.50;40.20;;;;;;5033275;28;20041;-77
2021/10/20 08:12:21;;;;;;;0.00;0.00;;;19.30;38.80;;;;;;5034813;28;20373;-79
2021/10/20 08:14:48;;;;;;;0.00;0.00;;;20.10;37.70;;;;;;5035843;28;20033;-77
2021/10/20 08:17:13;;;;;;;0.00;0.00;;;20.70;36.70;;;;;;5028963;28;20048;-78
2021/10/20 08:19:39;;;;;;;0.00;0.00;;;21.20;35.60;;;;;;5031440;28;20381;-82
2021/10/20 08:22:06;;;;;;;0.00;0.00;;;21.70;34.90;;;;;;5033508;28;20099;-80
2021/10/20 08:24:32;;;;;;;0.00;0.00;;;22.00;34.00;;;;;;5035966;28;20112;-78
2021/10/20 08:26:58;;;;;;;0.00;0.00;;;22.40;33.50;;;;;;5035675;28;20026;-77
2021/10/20 08:29:24;;;;;;;0.00;0.00;;;22.60;33.00;;;;;;5036024;28;20079;-79
2021/10/20 08:31:50;;;;;;;0.00;0.00;;;23.10;32.90;;;;;;5036238;28;20030;-77
2021/10/20 08:34:16;;;;;;;0.00;0.00;;;23.60;32.30;;;;;;5035900;28;20055;-76
2021/10/20 08:36:41;;;;;;;0.00;0.00;;;24.10;31.50;;;;;;5034285;28;20521;-78
2021/10/20 08:39:07;;;;;;;0.00;0.00;;;24.50;30.80;;;;;;5035862;28;20029;-77
2021/10/20 08:41:33;;;;;;;0.00;0.00;;;25.00;30.50;;;;;;5034581;28;20480;-77
2021/10/20 08:43:59;;;;;;;0.00;0.00;;;25.00;30.00;;;;;;5035029;28;20116;-80
2021/10/20 08:46:28;;;;;;;0.00;0.00;;;24.30;29.70;;;;;;5035185;28;20426;-79
2021/10/20 08:48:56;;;;;;;0.00;0.00;;;23.80;29.90;;;;;;5035257;28;20514;-80
2021/10/20 08:51:23;;;;;;;0.00;0.00;;;24.10;30.30;;;;;;5037328;28;20436;-80
2021/10/20 08:53:50;;;;;;;0.00;0.00;;;24.70;30.00;;;;;;5050273;28;20029;-77
2021/10/20 08:56:17;;;;;;;0.00;0.00;;;25.10;29.40;;;;;;5034851;28;20029;-78
2021/10/20 08:58:44;;;;;;;0.00;0.00;;;25.30;29.20;;;;;;5034552;28;20017;-78
2021/10/20 09:01:10;;;;;;;0.00;0.00;;;25.60;29.00;;;;;;5034712;28;20021;-78
2021/10/20 09:03:36;;;;;;;0.00;0.00;;;25.90;28.70;;;;;;5050110;28;20040;-78
2021/10/20 09:06:01;;;;;;;0.00;0.00;;;26.00;28.40;;;;;;5054195;28;20025;-79
2021/10/20 09:08:37;;;;;;;0.00;0.00;;;26.00;28.20;;;;;;5054409;28;20025;-78
2021/10/20 09:11:18;;;;;;;0.00;0.00;;;26.00;28.20;;;;;;5069769;28;20035;-78
2021/10/20 09:13:44;;;;;;;0.00;0.00;;;25.90;28.60;;;;;;5069634;28;20032;-78
2021/10/20 09:16:09;;;;;;;0.00;0.00;;;25.90;28.20;;;;;;5054147;28;20412;-78
2021/10/20 09:18:37;;;;;;;0.00;0.00;;;26.00;28.30;;;;;;5054112;28;20424;-77
2021/10/20 09:21:05;;;;;;;0.00;0.00;;;26.10;28.30;;;;;;5053368;28;20032;-78
2021/10/20 09:23:31;;;;;;;0.00;0.00;;;26.50;28.30;;;;;;5054107;28;20045;-77
2021/10/20 09:25:58;;;;;;;0.00;0.00;;;26.70;28.20;;;;;;5053681;28;20032;-77
2021/10/20 09:28:31;;;;;;;0.00;0.00;;;26.90;28.30;;;;;;5053710;28;20083;-79
2021/10/20 09:31:01;;;;;;;0.00;0.00;;;27.20;28.20;;;;;;5053899;28;20033;-78
2021/10/20 09:33:27;;;;;;;0.25;0.00;;;27.60;28.30;;;;;;5053861;28;20258;-78
2021/10/20 09:35:53;;;;;;;0.00;0.00;;;27.80;28.20;;;;;;5053718;28;20029;-78
2021/10/20 09:38:20;;;;;;;0.00;0.00;;;28.00;28.20;;;;;;5054119;28;20531;-77
2021/10/20 09:40:48;;;;;;;0.00;0.00;;;28.30;28.10;;;;;;5043209;28;20072;-79
2021/10/20 09:43:18;;;;;;;0.00;0.00;;;28.10;27.80;;;;;;5021836;28;20064;-78
2021/10/20 09:45:45;;;;;;;0.00;0.00;;;27.50;27.80;;;;;;5021494;28;20034;-77
2021/10/20 09:48:16;;;;;;;0.00;0.00;;;27.10;28.00;;;;;;5021151;28;20021;-78
2021/10/20 09:50:57;;;;;;;0.00;0.00;;;27.00;28.10;;;;;;5022319;28;20025;-78
2021/10/20 09:53:28;;;;;;;0.00;0.00;;;26.90;28.00;;;;;;5023246;28;20030;-79
2021/10/20 09:55:55;;;;;;;0.00;0.00;;;27.00;28.10;;;;;;5021972;28;20032;-79
2021/10/20 09:58:20;;;;;;;0.00;0.00;;;27.10;28.00;;;;;;5012655;28;20031;-79
2021/10/20 10:00:46;;;;;;;0.00;0.00;;;26.90;28.00;;;;;;5023453;28;20712;-78
2021/10/20 10:03:12;;;;;;;0.00;0.00;;;26.90;28.20;;;;;;5023481;28;20405;-78
2021/10/20 10:05:38;;;;;;;0.00;0.00;;;27.00;28.00;;;;;;5021882;28;20018;-78
2021/10/20 10:08:05;;;;;;;0.00;0.00;;;26.80;28.00;;;;;;5021666;28;20030;-80
2021/10/20 10:10:31;;;;;;;0.00;0.00;;;26.80;28.20;;;;;;5021578;28;20036;-79
2021/10/20 10:13:05;;;;;;;0.00;0.00;;;27.30;28.20;;;;;;5022475;28;20410;-80
2021/10/20 10:15:35;;;;;;;0.00;0.00;;;27.80;28.00;;;;;;5030347;28;20021;-79
2021/10/20 10:18:03;;;;;;;0.00;0.00;;;28.40;28.00;;;;;;5028069;28;20495;-77
2021/10/20 10:20:32;;;;;;;0.00;0.00;;;28.40;27.40;;;;;;5021222;28;20478;-77
2021/10/20 10:23:02;;;;;;;0.00;0.00;;;27.60;27.50;;;;;;5022392;28;20037;-78
2021/10/20 10:25:41;;;;;;;0.00;0.00;;;26.80;27.80;;;;;;5029916;28;20040;-78
2021/10/20 10:28:17;;;;;;;0.00;0.00;;;26.10;28.30;;;;;;5028184;28;20031;-78
2021/10/20 10:30:58;;;;;;;0.00;0.00;;;25.50;28.40;;;;;;5022831;28;20152;-77
2021/10/20 10:33:26;;;;;;;0.00;0.00;;;24.70;28.80;;;;;;5021430;28;20103;-77
2021/10/20 10:36:09;;;;;;;0.00;0.00;;;24.20;29.20;;;;;;5021434;28;20021;-79
2021/10/20 10:39:04;;;;;;;0.00;0.00;;;23.80;29.70;;;;;;5021515;28;20471;-80
2021/10/20 10:41:48;;;;;;;0.00;0.00;;;23.40;30.00;;;;;;5019478;28;20026;-79
2021/10/20 10:44:22;;;;;;;0.00;0.00;;;23.00;30.40;;;;;;5020224;28;20397;-77
2021/10/20 10:46:55;;;;;;;0.00;0.00;;;22.70;30.90;;;;;;5027575;28;20049;-79
2021/10/20 10:49:25;;;;;;;0.00;0.00;;;22.40;31.50;;;;;;5027809;28;20060;-77
2021/10/20 10:52:17;;;;;;;0.00;0.00;;;22.20;31.80;;;;;;5021001;28;20018;-77
2021/10/20 10:55:14;;;;;;;0.00;0.00;;;21.70;32.10;;;;;;5020489;28;20021;-78
2021/10/20 10:57:50;;;;;;;0.00;0.00;;;21.40;32.60;;;;;;5022044;28;20383;-79
2021/10/20 11:00:19;;;;;;;0.00;0.00;;;21.10;33.00;;;;;;5042860;28;20485;-78
2021/10/20 11:02:55;;;;;;;0.00;0.00;;;20.90;33.30;;;;;;5039963;28;20120;-80
2021/10/20 11:05:32;;;;;;;0.10;0.00;;;20.80;33.40;;;;;;5049773;28;20017;-78
2021/10/20 11:08:03;;;;;;;0.00;0.00;;;20.60;33.70;;;;;;5040848;28;20108;-78
2021/10/20 11:10:30;;;;;;;0.00;0.00;;;20.50;33.90;;;;;;5036723;28;20029;-77
2021/10/20 11:12:57;;;;;;;0.00;0.00;;;20.60;34.20;;;;;;5035150;28;20040;-77
2021/10/20 11:15:25;;;;;;;0.00;0.00;;;20.70;34.20;;;;;;5044958;28;20351;-79
2021/10/20 11:17:51;;;;;;;0.00;0.00;;;21.00;34.00;;;;;;5047962;28;20025;-79
2021/10/20 11:20:19;;;;;;;0.00;0.00;;;21.20;33.90;;;;;;5045260;28;20571;-78
2021/10/20 11:22:47;;;;;;;0.00;0.00;;;21.60;33.90;;;;;;5045235;28;20033;-78
2021/10/20 11:25:14;;;;;;;0.00;0.00;;;21.90;33.80;;;;;;5045529;28;20018;-77
2021/10/20 11:27:46;;;;;;;0.00;0.00;;;21.90;33.50;;;;;;5047960;28;20014;-77
2021/10/20 11:30:12;;;;;;;0.03;0.00;;;21.70;33.90;;;;;;5042187;28;20061;-78
2021/10/20 11:32:41;;;;;;;0.00;0.00;;;21.50;34.30;;;;;;5045418;28;20025;-79
2021/10/20 11:35:19;;;;;;;0.00;0.00;;;21.40;34.60;;;;;;5047915;28;20024;-78
2021/10/20 11:38:04;;;;;;;0.00;0.00;;;21.40;35.00;;;;;;5046121;28;20022;-79
2021/10/20 11:40:50;;;;;;;0.00;0.00;;;21.80;34.90;;;;;;5046961;28;20025;-78
2021/10/20 11:43:17;;;;;;;0.00;0.00;;;22.70;34.50;;;;;;5046200;28;20037;-79
2021/10/20 11:45:43;;;;;;;0.00;0.00;;;23.80;34.00;;;;;;5045230;28;20021;-80
2021/10/20 11:48:09;;;;;;;0.03;0.03;;;24.70;33.00;;;;;;5062458;28;20028;-77
2021/10/20 11:50:36;;;;;;;0.00;0.00;;;25.20;32.50;;;;;;5046353;28;20116;-79
2021/10/20 11:53:07;;;;;;;0.00;0.00;;;25.40;32.30;;;;;;5046948;28;20025;-77
2021/10/20 11:55:40;;;;;;;0.00;0.00;;;25.60;32.30;;;;;;5065736;28;20116;-78
2021/10/20 11:58:06;;;;;;;0.00;0.00;;;25.90;32.20;;;;;;5056027;28;20036;-78
2021/10/20 12:00:34;;;;;;;0.00;0.00;;;25.90;32.10;;;;;;5056228;28;20029;-78
2021/10/20 12:03:00;;;;;;;0.00;0.00;;;26.00;32.10;;;;;;5055852;28;20036;-77
2021/10/20 12:05:28;;;;;;;0.00;0.00;;;26.10;32.10;;;;;;5044603;28;20083;-77
2021/10/20 12:07:54;;;;;;;0.00;0.00;;;26.20;32.10;;;;;;5035732;28;20109;-78
2021/10/20 12:10:20;;;;;;;0.00;0.00;;;26.30;32.00;;;;;;5036011;28;20071;-78
2021/10/20 12:12:48;;;;;;;0.00;0.00;;;26.40;31.90;;;;;;5035281;28;20033;-78
2021/10/20 12:15:21;;;;;;;0.00;0.00;;;26.30;32.10;;;;;;5036317;28;20100;-76
2021/10/20 12:17:49;;;;;;;0.00;0.00;;;26.30;32.30;;;;;;5035525;28;20027;-78
2021/10/20 12:20:18;;;;;;;0.00;0.00;;;26.40;32.40;;;;;;5035828;28;20022;-78
2021/10/20 12:22:46;;;;;;;0.00;0.00;;;26.50;32.40;;;;;;5035862;28;20060;-77
2021/10/20 12:25:12;;;;;;;0.00;0.00;;;26.60;32.50;;;;;;5035560;28;20026;-77
2021/10/20 12:27:40;;;;;;;0.00;0.00;;;26.90;32.70;;;;;;5051268;28;20022;-78
2021/10/20 12:30:08;;;;;;;0.00;0.00;;;27.00;32.60;;;;;;5035476;28;20080;-77
2021/10/20 12:32:39;;;;;;;0.00;0.00;;;27.10;32.70;;;;;;5035443;28;20041;-79
2021/10/20 12:35:13;;;;;;;0.00;0.00;;;27.20;32.70;;;;;;5035205;28;20359;-77
2021/10/20 12:37:48;;;;;;;0.00;0.00;;;27.40;32.80;;;;;;5034156;28;20036;-77
2021/10/20 12:40:21;;;;;;;0.00;0.00;;;27.50;32.80;;;;;;5035351;28;20021;-77
2021/10/20 12:42:59;;;;;;;0.00;0.00;;;27.50;32.90;;;;;;5034078;28;20041;-77
2021/10/20 12:45:27;;;;;;;0.00;0.00;;;27.40;33.10;;;;;;5035515;28;20032;-77
2021/10/20 12:47:57;;;;;;;0.00;0.00;;;27.00;33.50;;;;;;5037245;28;20024;-79
2021/10/20 12:50:29;;;;;;;0.00;0.00;;;26.30;34.00;;;;;;5054673;28;20022;-77
2021/10/20 12:52:55;;;;;;;0.00;0.00;;;25.60;34.60;;;;;;5054433;28;20032;-80
2021/10/20 12:55:26;;;;;;;0.00;0.00;;;24.70;35.70;;;;;;5054980;28;20216;-78